Stoy, Illinois
Current Conditions -  °F | °C
As of 6:15 AM on Sunday 23 Nov 2014 (Local Time) from KRSV Reporting Station
Clear Clear  
Wind Chill: 51°   Ceiling: Unl
Heat Index: 51°   Visibility: 10mi
Dew Point: 41°   Wind: 12mph
Humidity: 69%   Direction: 160°SSE
Pressure: 29.86"   Gusts: NA
Location:  39°N, 87.83°W
Report Text: KRSV 231215Z AUTO 16010KT 10SM CLR 10/05 A2986 RMK AO2 T01040050
Loading
Personal Weather Stations






























Interactive Weather Map New forecast layout! Learn more

10-Day Weather Forecast

Advertisements
Track Severe Weather on mobile